LTBJ/ADB METAR and TAF weather

Enter ICAO airport designator
Station Type Date Time Source
LTBJ METAR 2020/09/22 16:50 UTC NOAA

LTBJ 221650Z 01010KT CAVOK 24/16 Q1014 NOSIG


Station Type Date Time Source
LTBJ Decoded METAR 2020/09/22 16:50 UTC NOAA

Izmir / Adnan Menderes, Turkey (LTBJ) 38-16N 027-09E 120M
Sep 22, 2020 - 12:50 PM EDT / 2020.09.22 1650 UTC
Wind: from the N (010 degrees) at 12 MPH (10 KT):0
Visibility: greater than 7 mile(s):0
Temperature: 75 F (24 C)
Dew Point: 60 F (16 C)
Relative Humidity: 60%
Pressure (altimeter): 29.94 in. Hg (1014 hPa)
ob: LTBJ 221650Z 01010KT CAVOK 24/16 Q1014 NOSIG
cycle: 17

Station Type Date Time Source
LTBJ TAF 2020/09/22 18:03 UTC NOAA

TAF LTBJ 221640Z 2218/2318 35010KT CAVOK
BECMG 2307/2310 35015G25KT

Example: see airport list